Weather at Monroe Regional Airport

Public forecast

Using degrees Fahrenheit for public forecast. Weather courtesy of forecast.io.

Current aviation weather report (METAR) for Monroe Regional Airport

Retrieved 2021/09/17 02:53 UTC (38 minutes ago):

KMLU 170253Z 03003KT 10SM OVC047 24/23 A2991 RMK AO2 SLP126 T02440228 51007

Aviation forecast (TAF) for Monroe Regional Airport

Retrieved 2021-09-17 00:46 UTC (3 hours ago):

TAF KMLU 162344Z 1700/1724 04006KT P6SM SCT030 OVC070 TEMPO 1703/1706 BKN020 FM170600 04004KT P6SM OVC020 FM170900 04003KT P6SM VCSH OVC007 FM171200 04003KT P6SM VCSH OVC003 FM171500 VRB04KT P6SM VCSH OVC007 FM171800 VRB04KT P6SM VCTS OVC015CB